Time;durP1;ratioP1;P1;durP2;ratioP2;P2;SDS_P1;SDS_P2;PMS_P1;PMS_P2;Temp;Humidity;BMP_temperature;BMP_pressure;BME280_temperature;BME280_humidity;BME280_pressure;Samples;Min_cycle;Max_cycle;Signal;HPM_P1;HPM_P2
2022/05/01 00:00:55;;;;;;;19.23;12.60;;;;;;;12.88;68.36;101195.41;5025898;28;20224;-65
2022/05/01 00:03:32;;;;;;;19.07;13.00;;;;;;;12.83;68.66;101197.69;5026328;28;20244;-65
2022/05/01 00:06:00;;;;;;;18.50;12.90;;;;;;;12.85;68.39;101200.19;5029452;28;20212;-65
2022/05/01 00:08:29;;;;;;;16.97;12.37;;;;;;;12.85;67.96;101195.69;5022304;28;20229;-65
2022/05/01 00:10:57;;;;;;;20.60;12.67;;;;;;;12.82;68.04;101193.34;5028191;28;20544;-65
2022/05/01 00:13:39;;;;;;;21.37;13.07;;;;;;;12.85;68.10;101192.19;5027781;28;20216;-65
2022/05/01 00:16:07;;;;;;;20.50;13.07;;;;;;;12.82;67.92;101196.00;5025909;28;20241;-65
2022/05/01 00:18:46;;;;;;;16.73;12.83;;;;;;;12.82;67.87;101198.66;5024113;28;20291;-66
2022/05/01 00:21:14;;;;;;;16.90;12.67;;;;;;;12.81;68.08;101199.66;5022802;28;20654;-65
2022/05/01 00:23:56;;;;;;;23.00;12.83;;;;;;;12.84;67.82;101195.88;5023828;28;20315;-66
2022/05/01 00:26:26;;;;;;;16.93;12.30;;;;;;;12.87;67.36;101195.56;5021836;28;20209;-66
2022/05/01 00:28:55;;;;;;;20.07;12.57;;;;;;;12.87;67.27;101188.41;5023841;28;20328;-66
2022/05/01 00:31:23;;;;;;;17.27;12.57;;;;;;;12.87;67.62;101183.09;5025677;28;20220;-66
2022/05/01 00:36:41;;;;;;;17.83;12.00;;;;;;;12.81;67.51;101178.34;5025102;28;20212;-66
2022/05/01 00:39:11;;;;;;;15.10;12.30;;;;;;;12.83;68.01;101179.06;5025191;28;20207;-66
2022/05/01 00:41:41;;;;;;;14.13;10.97;;;;;;;12.82;67.57;101175.56;5025090;28;20280;-66
2022/05/01 00:44:10;;;;;;;18.13;12.17;;;;;;;12.85;67.56;101171.75;5025541;28;20287;-65
2022/05/01 00:46:41;;;;;;;16.60;12.20;;;;;;;12.87;67.62;101172.44;5024588;28;20221;-64
2022/05/01 00:49:10;;;;;;;17.87;13.30;;;;;;;12.91;67.55;101173.84;5022018;28;20240;-65
2022/05/01 00:51:42;;;;;;;19.07;12.83;;;;;;;12.87;67.77;101166.28;5022466;28;20210;-65
2022/05/01 00:54:11;;;;;;;17.17;12.33;;;;;;;12.85;67.42;101166.41;5022091;28;20212;-65
2022/05/01 00:56:41;;;;;;;17.13;11.73;;;;;;;12.84;67.42;101162.06;5022482;28;20205;-65
2022/05/01 00:59:10;;;;;;;17.27;12.87;;;;;;;12.85;67.64;101160.25;5023658;28;20725;-65
2022/05/01 01:01:42;;;;;;;17.83;11.90;;;;;;;12.82;67.59;101156.06;5022898;28;20216;-65
2022/05/01 01:04:10;;;;;;;16.97;11.90;;;;;;;12.83;67.57;101160.41;5023420;28;20216;-65
2022/05/01 01:06:38;;;;;;;15.80;11.20;;;;;;;12.82;67.70;101159.59;5021471;28;20214;-65
2022/05/01 01:09:07;;;;;;;14.60;11.43;;;;;;;12.83;67.12;101160.41;5016094;28;20235;-65
2022/05/01 01:11:36;;;;;;;17.30;11.30;;;;;;;12.84;67.18;101155.94;5016519;28;20212;-65
2022/05/01 01:14:05;;;;;;;18.83;10.83;;;;;;;12.82;66.67;101153.41;5024253;28;20685;-65
2022/05/01 01:16:34;;;;;;;15.77;10.83;;;;;;;12.79;67.34;101141.22;5023958;28;20219;-65
2022/05/01 01:19:03;;;;;;;17.30;11.37;;;;;;;12.77;67.21;101145.84;5023118;28;20698;-65
2022/05/01 01:21:32;;;;;;;19.73;11.93;;;;;;;12.78;66.98;101146.69;5022353;28;20213;-65
2022/05/01 01:24:03;;;;;;;15.10;10.73;;;;;;;12.78;66.95;101147.53;5023956;28;20212;-65
2022/05/01 01:26:32;;;;;;;16.17;10.60;;;;;;;12.76;66.62;101148.66;5019261;28;20282;-65
2022/05/01 01:29:01;;;;;;;19.13;11.27;;;;;;;12.78;66.97;101154.69;5022597;28;20244;-64
2022/05/01 01:31:43;;;;;;;15.60;10.43;;;;;;;12.79;67.11;101149.22;5019688;28;20236;-64
2022/05/01 01:34:14;;;;;;;15.00;9.63;;;;;;;12.79;66.51;101151.03;5020642;28;20208;-65
2022/05/01 01:36:50;;;;;;;13.47;10.73;;;;;;;12.81;66.46;101154.41;5019758;28;20284;-65
2022/05/01 01:39:29;;;;;;;;;;;;;;;;;;;;;
2022/05/01 01:41:58;;;;;;;14.30;10.17;;;;;;;12.75;66.87;101150.47;5020732;28;20206;-66
2022/05/01 01:44:29;;;;;;;15.57;10.43;;;;;;;12.77;67.06;101147.69;5024413;28;20261;-64
2022/05/01 01:46:57;;;;;;;14.43;10.23;;;;;;;12.75;66.75;101162.97;5017382;28;20284;-64
2022/05/01 01:49:25;;;;;;;16.97;11.47;;;;;;;12.78;67.08;101162.66;5016070;28;20243;-64
2022/05/01 01:52:01;;;;;;;16.07;10.23;;;;;;;12.75;67.10;101147.00;5017782;28;20217;-65
2022/05/01 01:54:28;;;;;;;16.37;9.73;;;;;;;12.69;67.34;101148.41;5021804;28;20307;-64
2022/05/01 01:56:56;;;;;;;15.07;9.80;;;;;;;12.73;67.06;101149.81;5017145;28;20300;-64
2022/05/01 01:59:24;;;;;;;13.47;9.63;;;;;;;12.73;67.31;101148.97;5020554;28;20231;-64
2022/05/01 02:01:54;;;;;;;13.93;10.20;;;;;;;12.72;67.43;101149.94;5017523;28;20576;-66
2022/05/01 02:04:21;;;;;;;17.63;9.87;;;;;;;12.74;67.01;101155.97;5018538;28;20304;-65
2022/05/01 02:06:49;;;;;;;12.83;9.30;;;;;;;12.76;66.75;101148.66;5019468;28;20674;-65
2022/05/01 02:09:20;;;;;;;15.93;10.07;;;;;;;12.73;67.02;101143.66;5019193;28;20226;-65
2022/05/01 02:11:48;;;;;;;11.90;9.10;;;;;;;12.75;66.99;101142.50;5020660;28;20397;-65
2022/05/01 02:14:16;;;;;;;16.17;9.53;;;;;;;12.73;66.70;101143.66;5022990;28;20221;-65
2022/05/01 02:16:44;;;;;;;14.37;9.73;;;;;;;12.73;66.51;101140.97;5020702;28;20212;-65
2022/05/01 02:19:13;;;;;;;12.30;9.03;;;;;;;12.76;66.76;101143.34;5022147;28;20878;-65
2022/05/01 02:21:40;;;;;;;13.90;9.37;;;;;;;12.74;66.58;101138.19;5021825;28;20209;-67
2022/05/01 02:24:09;;;;;;;13.83;8.80;;;;;;;12.72;66.49;101136.66;5019616;28;20712;-66
2022/05/01 02:26:39;;;;;;;12.27;8.97;;;;;;;12.72;66.48;101139.31;5020471;28;20641;-66
2022/05/01 02:29:09;;;;;;;15.30;9.03;;;;;;;12.72;66.55;101139.31;5019666;28;20219;-65
2022/05/01 02:31:39;;;;;;;11.90;8.93;;;;;;;12.72;66.36;101147.28;5018327;28;20197;-66
2022/05/01 02:34:07;;;;;;;13.60;8.93;;;;;;;12.70;65.95;101139.44;5019954;28;20395;-66
2022/05/01 02:36:35;;;;;;;12.60;8.17;;;;;;;12.71;65.62;101135.81;5019831;28;20251;-66
2022/05/01 02:39:04;;;;;;;15.20;8.53;;;;;;;12.68;65.82;101127.25;5019199;28;20268;-66
2022/05/01 02:41:35;;;;;;;14.07;8.37;;;;;;;12.71;66.31;101133.13;5020345;28;20223;-66
2022/05/01 02:44:04;;;;;;;13.37;7.83;;;;;;;12.74;66.00;101126.69;5020121;28;20208;-66
2022/05/01 02:46:33;;;;;;;10.93;8.20;;;;;;;12.70;65.96;101130.63;5018723;28;20709;-66
2022/05/01 02:49:01;;;;;;;14.57;7.90;;;;;;;12.69;66.28;101126.28;5019947;28;20650;-66
2022/05/01 02:51:29;;;;;;;12.77;8.37;;;;;;;12.69;65.91;101120.97;5021690;28;20236;-65
2022/05/01 02:53:57;;;;;;;14.23;7.90;;;;;;;12.66;66.18;101121.28;5024319;28;20216;-66
2022/05/01 02:56:25;;;;;;;10.63;7.53;;;;;;;12.67;65.69;101120.25;5024981;28;20308;-66
2022/05/01 02:58:54;;;;;;;10.60;7.53;;;;;;;12.65;65.63;101120.44;5018937;28;20300;-66
2022/05/01 03:01:36;;;;;;;11.73;7.73;;;;;;;12.67;65.44;101117.59;5020869;28;20309;-66
2022/05/01 03:04:05;;;;;;;12.47;8.30;;;;;;;12.65;65.75;101124.91;5027130;28;20263;-66
2022/05/01 03:06:34;;;;;;;11.63;8.10;;;;;;;12.66;65.51;101118.59;5024766;28;20213;-66
2022/05/01 03:09:02;;;;;;;12.83;8.03;;;;;;;12.67;65.63;101114.94;5022735;28;20311;-66
2022/05/01 03:11:32;;;;;;;13.17;8.57;;;;;;;12.68;66.19;101119.28;5022758;28;20235;-65
2022/05/01 03:13:59;;;;;;;15.20;8.20;;;;;;;12.66;66.16;101105.31;5024179;28;20560;-66
2022/05/01 03:16:28;;;;;;;11.83;8.13;;;;;;;12.63;66.12;101105.59;5024904;28;20208;-66
2022/05/01 03:24:27;;;;;;;12.30;8.53;;;;;;;12.58;66.75;101113.16;5023506;28;20320;-65
2022/05/01 03:26:54;;;;;;;11.90;9.13;;;;;;;12.57;66.44;101104.34;5026194;28;20213;-65
2022/05/01 03:29:22;;;;;;;12.37;8.83;;;;;;;12.57;66.84;101106.19;5022640;28;20209;-66
2022/05/01 03:31:52;;;;;;;15.37;9.00;;;;;;;12.59;66.63;101104.19;5021648;28;20323;-65
2022/05/01 03:34:20;;;;;;;10.73;8.30;;;;;;;12.57;66.63;101106.19;5026197;28;20197;-65
2022/05/01 03:36:48;;;;;;;15.03;8.70;;;;;;;12.54;67.04;101101.13;5026791;28;20228;-65
2022/05/01 03:39:16;;;;;;;10.73;8.50;;;;;;;12.50;67.56;101097.06;5021224;28;20215;-65
2022/05/01 03:41:44;;;;;;;16.07;9.37;;;;;;;12.52;67.69;101097.78;5023661;28;20298;-65
2022/05/01 03:44:11;;;;;;;11.03;8.53;;;;;;;12.52;67.71;101105.75;5022799;28;20209;-65
2022/05/01 03:46:39;;;;;;;15.70;8.77;;;;;;;12.54;67.49;101099.31;5023412;28;20219;-65
2022/05/01 03:49:13;;;;;;;12.27;8.87;;;;;;;12.56;67.57;101089.38;5021580;28;20275;-65
2022/05/01 03:51:42;;;;;;;14.80;9.53;;;;;;;12.60;67.35;101097.88;5023967;28;20769;-65
2022/05/01 03:54:10;;;;;;;12.67;9.10;;;;;;;12.63;67.28;101095.78;5023281;28;21260;-66
2022/05/01 03:56:37;;;;;;;13.03;9.27;;;;;;;12.57;67.77;101095.53;5023968;28;20223;-66
2022/05/01 03:59:07;;;;;;;11.83;8.63;;;;;;;12.51;68.18;101093.44;5025742;28;20292;-66
2022/05/01 04:01:35;;;;;;;14.47;9.20;;;;;;;12.50;68.13;101094.41;5022681;28;20271;-66
2022/05/01 04:04:04;;;;;;;11.00;8.53;;;;;;;12.53;68.17;101094.13;5022487;28;20528;-65
2022/05/01 04:06:33;;;;;;;16.37;8.63;;;;;;;12.52;67.69;101087.97;5026575;28;20213;-65
2022/05/01 04:09:01;;;;;;;12.00;8.40;;;;;;;12.51;67.78;101094.28;5023617;28;20205;-65
2022/05/01 04:11:29;;;;;;;11.80;9.00;;;;;;;12.49;67.95;101092.78;5027161;28;20324;-65
2022/05/01 04:14:01;;;;;;;12.57;9.20;;;;;;;12.52;67.92;101097.78;5028778;28;20229;-64
2022/05/01 04:16:29;;;;;;;12.80;9.10;;;;;;;12.50;68.28;101100.56;5028155;28;20220;-64
2022/05/01 04:18:57;;;;;;;15.17;9.03;;;;;;;12.46;68.36;101101.03;5027180;28;20754;-64
2022/05/01 04:21:24;;;;;;;13.10;8.77;;;;;;;12.48;68.13;101101.72;5023616;28;20714;-65
2022/05/01 04:23:53;;;;;;;14.27;9.17;;;;;;;12.49;68.02;101095.44;5024116;28;20330;-66
2022/05/01 04:26:21;;;;;;;13.87;9.07;;;;;;;12.49;67.88;101101.56;5023061;28;20228;-66
2022/05/01 04:31:35;;;;;;;11.00;8.53;;;;;;;12.48;68.27;101104.38;5026591;28;20908;-65
2022/05/01 04:34:04;;;;;;;13.13;8.43;;;;;;;12.45;68.43;101108.16;5020543;28;20259;-65
2022/05/01 04:36:32;;;;;;;14.47;8.47;;;;;;;12.46;68.14;101119.66;5025449;28;20201;-65
2022/05/01 04:39:01;;;;;;;14.57;7.97;;;;;;;12.51;67.73;101115.56;5024531;28;20208;-66
2022/05/01 04:41:29;;;;;;;14.47;8.43;;;;;;;12.52;67.63;101117.25;5023523;28;20205;-65
2022/05/01 04:43:57;;;;;;;16.57;8.80;;;;;;;12.56;67.30;101120.47;5025267;28;20212;-65
2022/05/01 04:46:25;;;;;;;11.77;8.00;;;;;;;12.52;67.65;101113.75;5023798;28;20232;-65
2022/05/01 04:48:53;;;;;;;11.97;7.90;;;;;;;12.54;67.31;101117.09;5020870;28;20252;-65
2022/05/01 04:51:20;;;;;;;13.13;7.70;;;;;;;12.52;67.63;101117.25;5023296;28;20240;-65
2022/05/01 04:53:48;;;;;;;12.43;7.60;;;;;;;12.50;66.94;101126.34;5025664;28;20566;-65
2022/05/01 04:59:03;;;;;;;12.30;7.80;;;;;;;12.49;67.43;101124.69;5023882;28;20685;-65
2022/05/01 05:01:32;;;;;;;12.10;8.17;;;;;;;12.48;67.54;101128.31;5024058;28;20676;-65
2022/05/01 05:04:00;;;;;;;11.63;7.37;;;;;;;12.47;67.24;101124.81;5024930;28;20239;-65
2022/05/01 05:06:32;;;;;;;12.77;7.67;;;;;;;12.48;67.21;101128.31;5024211;28;20215;-65
2022/05/01 05:11:46;;;;;;;10.10;7.63;;;;;;;12.46;67.46;101140.94;5023993;28;20238;-65
2022/05/01 05:14:14;;;;;;;12.53;7.80;;;;;;;12.46;67.14;101135.59;5024889;28;20204;-65
2022/05/01 05:16:43;;;;;;;10.10;7.67;;;;;;;12.44;67.74;101139.25;5021588;28;20304;-65
2022/05/01 05:19:11;;;;;;;11.60;7.63;;;;;;;12.41;67.95;101134.19;5022606;28;20235;-65
2022/05/01 05:21:38;;;;;;;12.83;7.57;;;;;;;12.49;67.82;101143.31;5022648;28;20209;-65
2022/05/01 05:24:06;;;;;;;11.67;7.87;;;;;;;12.50;67.59;101142.31;5019108;28;20219;-65
2022/05/01 05:26:34;;;;;;;11.17;8.10;;;;;;;12.51;67.99;101139.50;5024704;28;20204;-65
2022/05/01 05:29:03;;;;;;;10.73;7.63;;;;;;;12.56;67.83;101142.59;5021336;28;20232;-65
2022/05/01 05:31:31;;;;;;;12.47;7.27;;;;;;;12.58;67.44;101142.41;5023571;28;20260;-65
2022/05/01 05:33:59;;;;;;;14.67;8.40;;;;;;;12.58;67.63;101145.91;5021195;28;20212;-65
2022/05/01 05:36:27;;;;;;;11.00;7.13;;;;;;;12.56;67.87;101150.56;5021677;28;20219;-65
2022/05/01 05:39:07;;;;;;;;;;;;;;;;;;;;;
2022/05/01 05:41:35;;;;;;;17.07;8.10;;;;;;;12.44;67.61;101143.72;5024978;28;20676;-65
2022/05/01 05:44:05;;;;;;;12.80;7.33;;;;;;;12.49;67.62;101154.75;5024139;28;20209;-65
2022/05/01 05:46:32;;;;;;;9.37;7.03;;;;;;;12.54;67.67;101159.66;5024774;28;20598;-65
2022/05/01 05:49:00;;;;;;;9.40;6.97;;;;;;;12.57;67.46;101157.56;5021685;28;20251;-65
2022/05/01 05:51:28;;;;;;;11.37;7.77;;;;;;;12.62;67.20;101157.13;5020953;28;20291;-65
2022/05/01 05:53:56;;;;;;;10.97;6.73;;;;;;;12.61;67.25;101161.59;5019755;28;20620;-65
2022/05/01 05:56:24;;;;;;;10.13;6.97;;;;;;;12.63;66.90;101153.47;5020935;28;20387;-65
2022/05/01 05:58:52;;;;;;;12.00;8.40;;;;;;;12.68;66.74;101167.16;5015957;28;20295;-65
2022/05/01 06:01:21;;;;;;;12.37;6.83;;;;;;;12.65;67.43;101163.00;5020505;28;20215;-65
2022/05/01 06:03:50;;;;;;;11.00;6.77;;;;;;;12.66;66.83;101161.19;5022890;28;20209;-65
2022/05/01 06:06:18;;;;;;;14.37;7.20;;;;;;;12.63;66.61;101161.47;5019571;28;20208;-65
2022/05/01 06:08:46;;;;;;;12.27;7.30;;;;;;;12.66;67.18;101163.84;5017824;28;20209;-65
2022/05/01 06:11:14;;;;;;;15.40;7.73;;;;;;;12.71;67.63;101164.22;5017357;28;20237;-65
2022/05/01 06:13:41;;;;;;;13.97;7.77;;;;;;;12.70;67.12;101165.22;5019910;28;20315;-65
2022/05/01 06:16:09;;;;;;;13.17;7.40;;;;;;;12.74;67.11;101166.63;5019954;28;20734;-64
2022/05/01 06:18:45;;;;;;;11.43;7.47;;;;;;;12.73;67.22;101170.25;5019117;28;20208;-65
2022/05/01 06:21:13;;;;;;;24.40;7.73;;;;;;;12.77;67.09;101166.31;5021947;28;20205;-66
2022/05/01 06:23:41;;;;;;;13.07;7.80;;;;;;;12.69;66.58;101169.69;5016867;28;20484;-65
2022/05/01 06:26:10;;;;;;;9.30;7.27;;;;;;;12.78;66.48;101168.00;5020140;28;20212;-66
2022/05/01 06:28:37;;;;;;;12.60;7.33;;;;;;;12.83;65.60;101160.41;5023810;28;20342;-67
2022/05/01 06:31:05;;;;;;;12.77;7.60;;;;;;;12.85;65.94;101162.91;5025718;28;20262;-66
2022/05/01 06:33:36;;;;;;;12.17;7.90;;;;;;;12.88;65.52;101163.47;5027321;28;20229;-66
2022/05/01 06:36:06;;;;;;;12.63;7.70;;;;;;;12.88;65.45;101160.81;5025046;28;20232;-66
2022/05/01 06:38:34;;;;;;;12.13;7.07;;;;;;;12.92;65.28;101167.53;5023123;28;20208;-66
2022/05/01 06:41:03;;;;;;;15.40;7.80;;;;;;;12.95;65.20;101164.56;5025020;28;20200;-66
2022/05/01 06:43:43;;;;;;;12.40;7.53;;;;;;;13.05;65.01;101173.34;5023663;28;20208;-65
2022/05/01 06:46:10;;;;;;;12.17;7.20;;;;;;;13.05;64.68;101164.50;5025161;28;20208;-65
2022/05/01 06:48:38;;;;;;;12.77;6.70;;;;;;;13.01;64.94;101156.00;5023275;28;20332;-66
2022/05/01 06:51:07;;;;;;;13.90;7.87;;;;;;;13.06;64.96;101161.72;5023041;28;20662;-65
2022/05/01 06:53:35;;;;;;;13.20;8.17;;;;;;;13.09;65.04;101160.59;5024558;28;20700;-65
2022/05/01 06:56:03;;;;;;;12.97;7.27;;;;;;;13.12;65.02;101158.44;5024531;28;20689;-65
2022/05/01 06:58:31;;;;;;;11.83;7.97;;;;;;;13.15;65.31;101162.69;5025708;28;20220;-65
2022/05/01 07:00:59;;;;;;;15.33;8.17;;;;;;;13.18;65.27;101165.06;5023042;28;20510;-65
2022/05/01 07:03:27;;;;;;;13.83;8.70;;;;;;;13.22;64.57;101162.91;5024287;28;20215;-65
2022/05/01 07:05:55;;;;;;;12.70;7.87;;;;;;;13.28;63.78;101162.34;5024740;28;20209;-65
2022/05/01 07:08:24;;;;;;;15.80;8.43;;;;;;;13.32;63.86;101169.03;5023823;28;20221;-65
2022/05/01 07:10:51;;;;;;;12.33;7.97;;;;;;;13.36;64.20;101165.09;5023692;28;20665;-65
2022/05/01 07:13:24;;;;;;;13.03;8.57;;;;;;;13.36;64.65;101168.59;5023672;28;20702;-65
2022/05/01 07:15:52;;;;;;;12.27;8.37;;;;;;;13.43;64.74;101174.16;5024629;28;20251;-65
2022/05/01 07:18:20;;;;;;;10.57;7.83;;;;;;;13.41;65.01;101170.81;5022615;28;20217;-65
2022/05/01 07:20:47;;;;;;;13.47;8.30;;;;;;;13.44;64.16;101166.03;5019030;28;20217;-66
2022/05/01 07:23:15;;;;;;;14.93;8.83;;;;;;;13.48;63.72;101166.56;5025082;28;20211;-66
2022/05/01 07:25:44;;;;;;;12.10;8.40;;;;;;;13.51;63.52;101169.78;5023052;28;20677;-66
2022/05/01 07:28:12;;;;;;;11.33;8.50;;;;;;;13.52;64.26;101167.94;5023042;28;20245;-66
2022/05/01 07:30:40;;;;;;;11.37;8.37;;;;;;;13.57;63.63;101168.31;5021820;28;20213;-66
2022/05/01 07:33:10;;;;;;;16.93;8.93;;;;;;;13.62;63.28;101167.88;5026502;28;20232;-65
2022/05/01 07:35:39;;;;;;;12.30;8.27;;;;;;;13.65;63.38;101165.72;5026123;28;20977;-66
2022/05/01 07:38:07;;;;;;;15.33;8.53;;;;;;;13.69;63.06;101166.28;5021801;28;20212;-65
2022/05/01 07:40:34;;;;;;;12.10;8.33;;;;;;;13.66;63.43;101164.75;5028174;28;20249;-66
2022/05/01 07:43:04;;;;;;;16.77;9.03;;;;;;;13.67;63.22;101158.44;5027340;28;20246;-65
2022/05/01 07:45:32;;;;;;;16.63;9.53;;;;;;;13.71;64.24;101162.50;5026955;28;20295;-65
2022/05/01 07:48:08;;;;;;;11.83;8.67;;;;;;;13.80;63.83;101161.56;5021247;28;20334;-65
2022/05/01 07:50:36;;;;;;;11.93;8.00;;;;;;;13.88;63.26;101151.00;5024049;28;20682;-65
2022/05/01 07:53:04;;;;;;;11.40;8.33;;;;;;;14.06;62.31;101155.47;5024585;28;20237;-65
2022/05/01 07:55:31;;;;;;;15.05;9.80;;;;;;;14.19;61.82;101154.06;5023860;28;20476;-70
2022/05/01 07:57:59;;;;;;;14.67;8.50;;;;;;;14.14;61.80;101152.88;5022380;28;20556;-70
2022/05/01 08:00:28;;;;;;;13.37;8.80;;;;;;;14.14;62.30;101160.88;5023568;28;20234;-70
2022/05/01 08:05:42;;;;;;;16.17;9.67;;;;;;;14.15;62.27;101152.72;5029441;28;20207;-70
2022/05/01 08:08:10;;;;;;;11.00;8.57;;;;;;;14.18;62.17;101143.53;5028636;28;20223;-71
2022/05/01 08:10:37;;;;;;;11.93;8.10;;;;;;;14.19;61.66;101134.56;5027694;28;20582;-70
2022/05/01 08:13:07;;;;;;;14.23;8.77;;;;;;;14.26;61.44;101143.59;5027742;28;20240;-70
2022/05/01 08:15:36;;;;;;;17.60;8.90;;;;;;;14.31;61.11;101142.16;5026986;28;20674;-70
2022/05/01 08:23:31;;;;;;;16.77;9.07;;;;;;;14.30;61.81;101140.47;5025917;28;20247;-69
2022/05/01 08:26:02;;;;;;;13.80;9.20;;;;;;;14.44;61.29;101143.59;5026982;28;20217;-70
2022/05/01 08:28:33;;;;;;;12.77;8.53;;;;;;;14.45;62.02;101140.78;5020373;28;20214;-70
2022/05/01 08:31:03;;;;;;;11.13;8.33;;;;;;;14.52;61.85;101136.47;5028538;28;20209;-70
2022/05/01 08:33:31;;;;;;;14.10;9.53;;;;;;;14.55;60.72;101149.50;5029263;28;20236;-70
2022/05/01 08:35:59;;;;;;;15.73;9.93;;;;;;;14.56;61.23;101145.84;5028703;28;20219;-70
2022/05/01 08:38:27;;;;;;;15.70;10.70;;;;;;;14.57;61.64;101136.84;5024484;28;20221;-70
2022/05/01 08:40:55;;;;;;;15.17;9.43;;;;;;;14.60;61.67;101147.19;5026113;28;20222;-68
2022/05/01 08:43:25;;;;;;;12.00;8.97;;;;;;;14.65;61.86;101142.25;5025415;28;20578;-68
2022/05/01 08:46:08;;;;;;;12.93;9.63;;;;;;;14.71;62.04;101135.41;5021251;28;20213;-68
2022/05/01 08:48:41;;;;;;;14.63;9.83;;;;;;;14.76;61.97;101137.63;5025143;28;20335;-67
2022/05/01 08:51:09;;;;;;;14.73;9.37;;;;;;;14.90;62.44;101135.19;5025522;28;20562;-73
2022/05/01 08:53:37;;;;;;;16.10;9.60;;;;;;;14.93;61.49;101142.06;5025477;28;20236;-70
2022/05/01 08:56:07;;;;;;;16.33;9.73;;;;;;;15.10;60.94;101148.28;5020826;28;20208;-72
2022/05/01 08:58:35;;;;;;;11.27;9.13;;;;;;;15.13;60.13;101143.44;5018570;28;20650;-67
2022/05/01 09:01:04;;;;;;;17.03;10.03;;;;;;;15.29;60.13;101140.03;5025928;28;20220;-71
2022/05/01 09:03:32;;;;;;;12.07;9.07;;;;;;;15.37;59.32;101142.72;5021585;28;20205;-70
2022/05/01 09:06:00;;;;;;;14.30;10.17;;;;;;;15.46;58.87;101140.91;5025360;28;20200;-70
2022/05/01 09:08:29;;;;;;;18.63;9.43;;;;;;;15.41;59.52;101142.22;5023354;28;20212;-70
2022/05/01 09:12:49;;;;;;;12.70;9.10;;;;;;;15.40;59.37;101143.22;5019570;28;20338;-70
2022/05/01 09:13:43;;;;;;;13.60;9.60;;;;;;;15.38;59.21;101147.91;5021503;28;20728;-71
2022/05/01 09:16:13;;;;;;;12.40;9.20;;;;;;;15.40;59.19;101145.88;5020730;28;20224;-70
2022/05/01 09:18:46;;;;;;;18.80;10.57;;;;;;;15.52;59.71;101145.59;5020771;28;20209;-71
2022/05/01 09:21:14;;;;;;;16.60;12.20;;;;;;;15.65;59.34;101148.66;5022779;28;20208;-71
2022/05/01 09:23:44;;;;;;;15.83;10.87;;;;;;;15.73;59.21;101148.66;5020958;28;20717;-71
2022/05/01 09:26:13;;;;;;;17.17;9.30;;;;;;;15.73;59.01;101144.16;5022687;28;20650;-71
2022/05/01 09:28:49;;;;;;;13.90;9.90;;;;;;;15.71;58.81;101150.66;5021409;28;20204;-71
2022/05/01 09:31:46;;;;;;;14.73;10.20;;;;;;;15.69;58.71;101139.28;5022872;28;20241;-70
2022/05/01 09:34:21;;;;;;;17.63;10.57;;;;;;;15.68;59.64;101145.63;5023137;28;20229;-71
2022/05/01 09:36:49;;;;;;;15.73;9.97;;;;;;;15.73;59.71;101149.50;5020837;28;20299;-71
2022/05/01 09:39:19;;;;;;;16.30;10.47;;;;;;;15.73;59.19;101154.03;5019898;28;20202;-70
2022/05/01 09:41:50;;;;;;;14.40;8.87;;;;;;;15.73;59.42;101148.66;5021483;28;20670;-71
2022/05/01 09:44:19;;;;;;;15.03;9.40;;;;;;;15.72;58.98;101147.00;5024496;28;20213;-71
2022/05/01 09:46:50;;;;;;;16.17;9.77;;;;;;;15.73;59.49;101146.00;5021277;28;20209;-70
2022/05/01 09:49:19;;;;;;;15.47;10.77;;;;;;;15.68;59.18;101151.00;5020802;28;20580;-71
2022/05/01 09:51:55;;;;;;;13.80;10.83;;;;;;;15.71;59.47;101150.66;5018329;28;20215;-69
2022/05/01 09:54:26;;;;;;;18.97;10.40;;;;;;;15.73;59.68;101151.34;5023149;28;20251;-71
2022/05/01 09:56:57;;;;;;;14.87;10.63;;;;;;;15.71;59.68;101148.00;5024950;28;20241;-69
2022/05/01 09:59:26;;;;;;;11.30;9.53;;;;;;;15.70;59.52;101149.84;5026728;28;20282;-70
2022/05/01 10:02:00;;;;;;;13.77;9.63;;;;;;;15.70;59.10;101143.66;5021161;28;20204;-72
2022/05/01 10:04:28;;;;;;;14.03;9.63;;;;;;;15.78;59.71;101151.69;5022493;28;20219;-70
2022/05/01 10:06:58;;;;;;;14.03;10.53;;;;;;;15.72;59.05;101152.34;5021555;28;20243;-69
2022/05/01 10:09:27;;;;;;;11.57;9.20;;;;;;;15.70;58.96;101149.00;5023499;28;20669;-70
2022/05/01 10:11:57;;;;;;;15.97;10.23;;;;;;;15.69;59.72;101152.66;5025358;28;20209;-71
2022/05/01 10:14:28;;;;;;;17.33;9.83;;;;;;;15.69;60.35;101148.16;5026638;28;20243;-69
2022/05/01 10:16:57;;;;;;;15.23;9.80;;;;;;;15.71;59.70;101142.66;5022220;28;20288;-70
2022/05/01 10:19:26;;;;;;;12.97;10.37;;;;;;;15.75;59.35;101149.31;5022683;28;20584;-70
2022/05/01 10:21:56;;;;;;;13.83;10.47;;;;;;;15.68;59.26;101148.31;5023535;28;20309;-69
2022/05/01 10:24:25;;;;;;;12.87;10.00;;;;;;;15.66;59.40;101144.97;5023686;28;20205;-70
2022/05/01 10:26:56;;;;;;;14.13;10.17;;;;;;;15.62;59.20;101140.97;5022919;28;20807;-69
2022/05/01 10:29:36;;;;;;;16.33;10.40;;;;;;;15.63;59.70;101143.47;5020223;28;20205;-69
2022/05/01 10:32:39;;;;;;;18.23;10.07;;;;;;;15.63;59.63;101143.47;5024534;28;20295;-68
2022/05/01 10:35:45;;;;;;;16.57;11.43;;;;;;;15.65;59.73;101141.47;5024117;28;20320;-67
2022/05/01 10:38:17;;;;;;;15.37;10.30;;;;;;;15.69;59.75;101147.31;5024661;28;20217;-68
2022/05/01 10:40:50;;;;;;;13.27;9.47;;;;;;;15.69;60.11;101136.63;5022092;28;20303;-68
2022/05/01 10:43:29;;;;;;;13.17;10.47;;;;;;;15.68;60.78;101137.63;5024764;28;20231;-69
2022/05/01 10:45:59;;;;;;;13.27;10.50;;;;;;;15.69;60.51;101136.63;5021661;28;20627;-67
2022/05/01 10:48:39;;;;;;;16.43;11.47;;;;;;;15.70;60.57;101133.78;5021958;28;20391;-72
2022/05/01 10:51:45;;;;;;;14.03;10.43;;;;;;;15.66;61.23;101136.94;5020143;28;20209;-70
2022/05/01 10:54:38;;;;;;;14.60;10.30;;;;;;;15.61;60.04;101136.63;5023345;28;20240;-71
2022/05/01 10:57:11;;;;;;;19.73;11.67;;;;;;;15.59;60.00;101133.25;5019854;28;20208;-70
2022/05/01 10:59:43;;;;;;;14.63;10.57;;;;;;;15.62;59.74;101131.09;5022239;28;20293;-70
2022/05/01 11:02:29;;;;;;;18.07;11.53;;;;;;;15.63;59.75;101126.59;5021267;28;20244;-71
2022/05/01 11:04:59;;;;;;;13.97;10.50;;;;;;;15.64;60.00;101131.78;5021235;28;20232;-71
2022/05/01 11:07:39;;;;;;;17.77;11.60;;;;;;;15.67;60.86;101122.56;5023634;28;20902;-71
2022/05/01 11:10:10;;;;;;;13.27;9.83;;;;;;;15.69;60.70;101121.41;5020649;28;20214;-71
2022/05/01 11:12:38;;;;;;;13.43;10.57;;;;;;;15.68;60.21;101114.41;5022717;28;20231;-72
2022/05/01 11:15:08;;;;;;;16.50;11.57;;;;;;;15.71;60.63;101121.25;5024989;28;20233;-73
2022/05/01 11:18:00;;;;;;;17.10;10.70;;;;;;;15.71;60.29;101113.25;5028480;28;20479;-72
2022/05/01 11:20:35;;;;;;;16.10;9.93;;;;;;;15.69;59.88;101113.41;5028924;28;20260;-71
2022/05/01 11:23:31;;;;;;;12.40;9.67;;;;;;;15.67;59.45;101111.88;5026377;28;20307;-71
2022/05/01 11:26:07;;;;;;;14.23;10.93;;;;;;;15.68;60.01;101113.56;4992509;28;20213;-71
2022/05/01 11:28:46;;;;;;;11.90;10.20;;;;;;;15.67;60.27;101111.88;5024156;28;20205;-72
2022/05/01 11:31:46;;;;;;;13.83;10.10;;;;;;;15.69;60.10;101101.88;5024988;28;20619;-70
2022/05/01 11:34:53;;;;;;;17.10;11.03;;;;;;;15.74;60.33;101096.88;5028011;28;20225;-70
2022/05/01 11:37:24;;;;;;;13.63;9.07;;;;;;;15.88;59.90;101098.03;5027399;28;20300;-70
2022/05/01 11:40:23;;;;;;;18.00;10.80;;;;;;;15.99;60.33;101092.34;5030556;28;20204;-68
2022/05/01 11:42:51;;;;;;;13.30;10.83;;;;;;;16.04;60.20;101093.50;5023922;28;20215;-70
2022/05/01 11:45:19;;;;;;;14.53;10.13;;;;;;;16.06;59.44;101099.53;5023926;28;20210;-69
2022/05/01 11:47:56;;;;;;;13.67;10.50;;;;;;;16.08;58.79;101088.66;5025418;28;20231;-70
2022/05/01 11:50:27;;;;;;;14.10;9.80;;;;;;;16.05;59.37;101092.50;5024285;28;20209;-71
2022/05/01 11:52:57;;;;;;;15.17;9.83;;;;;;;16.04;60.31;101093.50;5029898;28;20582;-70
2022/05/01 12:03:41;;;;;;;12.60;10.50;;;;;;;16.16;60.76;101081.47;5023032;28;20205;-71
2022/05/01 12:06:09;;;;;;;18.30;11.40;;;;;;;16.24;59.62;101082.44;5025547;28;20312;-71